createdAt,value
2018-07-03T00:01:18.251Z,17.50
2018-07-03T00:03:46.519Z,17.30
2018-07-03T00:06:14.827Z,17.10
2018-07-03T00:08:43.161Z,17.10
2018-07-03T00:11:11.480Z,17.10
2018-07-03T00:13:39.844Z,17.00
2018-07-03T00:16:08.241Z,16.90
2018-07-03T00:18:36.563Z,16.90
2018-07-03T00:21:04.920Z,16.80
2018-07-03T00:23:33.215Z,16.70
2018-07-03T00:26:01.795Z,16.70
2018-07-03T00:28:30.099Z,16.90
2018-07-03T00:30:58.700Z,16.90
2018-07-03T00:33:27.004Z,16.70
2018-07-03T00:35:55.372Z,16.70
2018-07-03T00:38:24.316Z,16.80
2018-07-03T00:40:52.639Z,16.80
2018-07-03T00:43:20.960Z,16.50
2018-07-03T00:45:49.276Z,16.60
2018-07-03T00:48:17.571Z,16.50
2018-07-03T00:50:45.907Z,16.40
2018-07-03T00:53:14.584Z,16.30
2018-07-03T00:55:42.908Z,16.20
2018-07-03T00:58:11.863Z,16.00
2018-07-03T01:00:40.896Z,16.00
2018-07-03T01:03:10.032Z,15.90
2018-07-03T01:05:38.322Z,16.00
2018-07-03T01:08:06.679Z,16.00
2018-07-03T01:10:34.989Z,15.90
2018-07-03T01:13:03.368Z,15.70
2018-07-03T01:15:31.660Z,15.60
2018-07-03T01:18:00.028Z,15.60
2018-07-03T01:20:28.412Z,15.50
2018-07-03T01:22:56.736Z,15.50
2018-07-03T01:25:25.020Z,15.50
2018-07-03T01:27:53.324Z,15.60
2018-07-03T01:30:21.614Z,15.50
2018-07-03T01:32:50.460Z,15.50
2018-07-03T01:35:18.796Z,15.20
2018-07-03T01:37:47.112Z,15.10
2018-07-03T01:40:15.437Z,15.10
2018-07-03T01:42:43.747Z,15.20
2018-07-03T01:45:12.077Z,15.20
2018-07-03T01:47:40.376Z,15.30
2018-07-03T01:50:08.677Z,15.30
2018-07-03T01:52:36.981Z,15.30
2018-07-03T01:55:07.256Z,15.30
2018-07-03T01:57:35.551Z,15.30
2018-07-03T02:00:04.704Z,15.30
2018-07-03T02:02:33.023Z,15.20
2018-07-03T02:05:01.693Z,14.90
2018-07-03T02:07:30.012Z,14.70
2018-07-03T02:09:58.311Z,14.40
2018-07-03T02:12:26.716Z,14.20
2018-07-03T02:14:55.040Z,14.20
2018-07-03T02:17:23.364Z,14.20
2018-07-03T02:19:51.679Z,14.50
2018-07-03T02:22:19.984Z,14.60
2018-07-03T02:24:48.288Z,14.70
2018-07-03T02:27:16.598Z,14.70
2018-07-03T02:29:44.899Z,14.60
2018-07-03T02:32:13.233Z,14.60
2018-07-03T02:34:41.556Z,14.70
2018-07-03T02:37:09.860Z,14.80
2018-07-03T02:39:38.148Z,14.60
2018-07-03T02:42:06.468Z,14.50
2018-07-03T02:44:34.764Z,14.50
2018-07-03T02:47:03.090Z,14.50
2018-07-03T02:49:31.781Z,14.40
2018-07-03T02:52:00.193Z,14.40
2018-07-03T02:54:28.507Z,14.50
2018-07-03T02:56:56.829Z,14.50
2018-07-03T02:59:25.131Z,14.30
2018-07-03T03:01:53.473Z,14.00
2018-07-03T03:04:22.403Z,14.00
2018-07-03T03:06:50.756Z,14.10
2018-07-03T03:09:19.072Z,14.20
2018-07-03T03:11:47.364Z,14.20
2018-07-03T03:14:15.672Z,14.20
2018-07-03T03:16:43.969Z,14.20
2018-07-03T03:19:12.310Z,14.30
2018-07-03T03:21:40.632Z,14.20
2018-07-03T03:24:08.935Z,14.00
2018-07-03T03:26:37.264Z,13.80
2018-07-03T03:29:05.663Z,13.90
2018-07-03T03:31:34.035Z,14.10
2018-07-03T03:34:02.362Z,14.10
2018-07-03T03:36:30.672Z,14.10
2018-07-03T03:38:59.028Z,14.00
2018-07-03T03:41:27.341Z,14.00
2018-07-03T03:43:55.645Z,14.20
2018-07-03T03:46:24.016Z,14.30
2018-07-03T03:48:52.408Z,14.30
2018-07-03T03:51:20.716Z,14.30
2018-07-03T03:53:49.056Z,14.30
2018-07-03T03:56:17.368Z,14.20
2018-07-03T03:58:45.667Z,14.20
2018-07-03T04:01:13.973Z,14.20
2018-07-03T04:03:42.369Z,14.30
2018-07-03T04:06:10.760Z,14.40
2018-07-03T04:08:39.091Z,14.50
2018-07-03T04:11:07.716Z,14.50
2018-07-03T04:13:36.024Z,14.50
2018-07-03T04:16:04.351Z,14.50
2018-07-03T04:18:33.673Z,14.50
2018-07-03T04:21:03.524Z,14.40
2018-07-03T04:23:32.204Z,14.40
2018-07-03T04:26:00.565Z,14.50
2018-07-03T04:28:29.016Z,14.60
2018-07-03T04:30:57.353Z,14.70
2018-07-03T04:33:25.668Z,14.70
2018-07-03T04:35:53.992Z,14.60
2018-07-03T04:38:22.288Z,14.70
2018-07-03T04:40:50.629Z,14.70
2018-07-03T04:43:19.192Z,14.50
2018-07-03T04:45:47.556Z,14.10
2018-07-03T04:48:15.939Z,13.90
2018-07-03T04:50:44.249Z,13.80
2018-07-03T04:53:12.568Z,13.90
2018-07-03T04:55:41.588Z,14.10
2018-07-03T04:58:09.887Z,14.20
2018-07-03T05:00:38.223Z,14.30
2018-07-03T05:03:07.540Z,14.40
2018-07-03T05:05:36.561Z,14.50
2018-07-03T05:08:04.923Z,14.50
2018-07-03T05:10:33.242Z,14.50
2018-07-03T05:13:01.544Z,14.60
2018-07-03T05:15:29.851Z,14.70
2018-07-03T05:17:58.156Z,14.70
2018-07-03T05:20:26.575Z,14.80
2018-07-03T05:22:55.463Z,14.90
2018-07-03T05:25:23.767Z,15.20
2018-07-03T05:27:52.089Z,15.40
2018-07-03T05:30:20.387Z,15.50
2018-07-03T05:32:48.691Z,15.60
2018-07-03T05:35:17.034Z,15.70
2018-07-03T05:37:45.348Z,15.80
2018-07-03T05:40:13.728Z,16.00
2018-07-03T05:42:42.040Z,16.10
2018-07-03T05:45:11.140Z,16.20
2018-07-03T05:47:39.500Z,16.30
2018-07-03T05:50:07.851Z,16.30
2018-07-03T05:52:36.201Z,16.40
2018-07-03T05:55:05.068Z,16.60
2018-07-03T05:57:33.440Z,16.70
2018-07-03T06:00:01.804Z,16.80
2018-07-03T06:02:30.192Z,16.90
2018-07-03T06:04:58.492Z,17.20
2018-07-03T06:07:27.268Z,17.30
2018-07-03T06:09:55.831Z,17.40
2018-07-03T06:12:25.952Z,17.50
2018-07-03T06:14:54.632Z,17.60
2018-07-03T06:17:23.093Z,17.60
2018-07-03T06:19:51.512Z,17.70
2018-07-03T06:22:19.879Z,17.80
2018-07-03T06:24:48.300Z,17.90
2018-07-03T06:27:16.608Z,18.00
2018-07-03T06:29:45.079Z,18.00
2018-07-03T06:32:13.388Z,18.10
2018-07-03T06:34:41.716Z,18.30
2018-07-03T06:37:11.404Z,18.40
2018-07-03T06:39:39.748Z,18.60
2018-07-03T06:42:08.268Z,18.70
2018-07-03T06:44:36.555Z,18.70
2018-07-03T06:47:04.915Z,18.80
2018-07-03T06:49:33.625Z,18.90
2018-07-03T06:52:01.977Z,19.00
2018-07-03T06:54:30.299Z,19.10
2018-07-03T06:56:58.656Z,19.20
2018-07-03T06:59:26.971Z,19.30
2018-07-03T07:01:55.268Z,19.50
2018-07-03T07:04:23.730Z,19.60
2018-07-03T07:06:52.052Z,19.90
2018-07-03T07:09:20.488Z,20.10
2018-07-03T07:11:48.720Z,20.20
2018-07-03T07:14:17.196Z,20.30
2018-07-03T07:16:45.529Z,20.30
2018-07-03T07:19:13.843Z,20.40
2018-07-03T07:21:42.144Z,20.60
2018-07-03T07:24:10.442Z,20.80
2018-07-03T07:26:38.764Z,21.10
2018-07-03T07:29:07.172Z,21.10
2018-07-03T07:31:35.477Z,21.10
2018-07-03T07:34:03.832Z,21.10
2018-07-03T07:36:32.181Z,21.30
2018-07-03T07:39:00.516Z,21.40
2018-07-03T07:41:28.852Z,21.60
2018-07-03T07:43:57.160Z,21.60
2018-07-03T07:48:53.853Z,21.80
2018-07-03T07:51:22.154Z,21.90
2018-07-03T07:53:50.468Z,21.90
2018-07-03T07:56:19.563Z,22.00
2018-07-03T07:58:47.844Z,22.00
2018-07-03T08:01:16.167Z,22.10
2018-07-03T08:03:44.620Z,22.30
2018-07-03T08:06:13.187Z,22.50
2018-07-03T08:08:41.499Z,22.50
2018-07-03T08:11:09.929Z,22.70
2018-07-03T08:13:38.328Z,22.70
2018-07-03T08:16:06.700Z,23.00
2018-07-03T08:18:35.018Z,23.00
2018-07-03T08:21:03.336Z,23.10
2018-07-03T08:23:31.720Z,23.10
2018-07-03T08:26:01.421Z,23.20
2018-07-03T08:28:29.832Z,23.30
2018-07-03T08:30:58.250Z,23.40
2018-07-03T08:33:26.558Z,23.60
2018-07-03T08:35:54.904Z,23.70
2018-07-03T08:38:23.860Z,23.80
2018-07-03T08:40:52.179Z,23.80
2018-07-03T08:43:20.492Z,24.10
2018-07-03T08:45:48.795Z,24.20
2018-07-03T08:48:17.103Z,24.10
2018-07-03T08:50:45.444Z,24.20
2018-07-03T08:53:13.824Z,24.20
2018-07-03T08:55:42.156Z,24.30
2018-07-03T08:58:12.578Z,24.40
2018-07-03T09:00:41.336Z,24.50
2018-07-03T09:03:09.680Z,24.60
2018-07-03T09:05:38.788Z,24.70
2018-07-03T09:08:07.123Z,24.80
2018-07-03T09:10:35.463Z,24.90
2018-07-03T09:13:03.816Z,25.10
2018-07-03T09:15:32.668Z,25.30
2018-07-03T09:18:01.044Z,25.40
2018-07-03T09:20:29.323Z,25.30
2018-07-03T09:22:57.655Z,25.30
2018-07-03T09:25:25.952Z,25.50
2018-07-03T09:27:54.307Z,25.50
2018-07-03T09:30:22.938Z,25.80
2018-07-03T09:32:51.248Z,26.00
2018-07-03T09:35:19.649Z,26.10
2018-07-03T09:37:47.956Z,26.00
2018-07-03T09:40:16.288Z,26.00
2018-07-03T09:42:45.359Z,26.20
2018-07-03T09:45:14.617Z,26.40
2018-07-03T09:47:43.555Z,26.60
2018-07-03T09:50:11.891Z,26.60
2018-07-03T09:52:41.022Z,26.80
2018-07-03T09:55:09.329Z,26.80
2018-07-03T09:57:37.624Z,26.90
2018-07-03T10:00:07.367Z,27.20
2018-07-03T10:02:35.660Z,27.00
2018-07-03T10:05:04.650Z,27.00
2018-07-03T10:07:32.983Z,27.30
2018-07-03T10:10:01.346Z,27.10
2018-07-03T10:12:30.657Z,27.30
2018-07-03T10:14:59.003Z,27.40
2018-07-03T10:17:27.312Z,27.20
2018-07-03T10:19:55.658Z,27.30
2018-07-03T10:22:23.948Z,27.40
2018-07-03T10:24:52.295Z,27.50
2018-07-03T10:27:20.620Z,27.60
2018-07-03T10:29:48.942Z,27.60
2018-07-03T10:32:17.256Z,27.50
2018-07-03T10:34:45.556Z,27.70
2018-07-03T10:37:13.976Z,27.90
2018-07-03T10:39:42.905Z,28.10
2018-07-03T10:42:11.207Z,28.30
2018-07-03T10:44:39.537Z,28.40
2018-07-03T10:47:07.904Z,28.40
2018-07-03T10:49:36.236Z,28.60
2018-07-03T10:52:04.564Z,28.50
2018-07-03T10:54:32.936Z,28.60
2018-07-03T10:57:01.258Z,28.30
2018-07-03T10:59:29.589Z,28.40
2018-07-03T11:01:57.931Z,28.50
2018-07-03T11:04:26.883Z,29.00
2018-07-03T11:06:55.455Z,29.20
2018-07-03T11:09:23.783Z,29.20
2018-07-03T11:11:52.078Z,29.30
2018-07-03T11:14:20.386Z,29.10
2018-07-03T11:16:48.728Z,29.40
2018-07-03T11:19:17.039Z,29.40
2018-07-03T11:21:45.346Z,29.70
2018-07-03T11:24:14.167Z,29.60
2018-07-03T11:26:42.500Z,29.50
2018-07-03T11:29:10.816Z,29.40
2018-07-03T11:31:39.152Z,29.10
2018-07-03T11:34:07.469Z,28.90
2018-07-03T11:36:35.791Z,29.20
2018-07-03T11:39:05.908Z,29.90
2018-07-03T11:41:34.242Z,30.10
2018-07-03T11:44:02.561Z,30.50
2018-07-03T11:46:30.959Z,30.70
2018-07-03T11:48:59.225Z,30.30
2018-07-03T11:51:27.555Z,30.10
2018-07-03T11:53:55.856Z,30.60
2018-07-03T11:56:24.316Z,30.80
2018-07-03T11:58:52.863Z,31.00
2018-07-03T12:01:21.207Z,30.60
2018-07-03T12:03:49.592Z,30.50
2018-07-03T12:06:17.936Z,30.10
2018-07-03T12:08:46.284Z,30.00
2018-07-03T12:11:14.636Z,30.20
2018-07-03T12:13:42.932Z,31.00
2018-07-03T12:16:11.241Z,31.90
2018-07-03T12:18:44.820Z,32.00
2018-07-03T12:21:13.128Z,31.30
2018-07-03T12:23:41.473Z,31.20
2018-07-03T12:26:09.881Z,31.00
2018-07-03T12:28:38.216Z,31.30
2018-07-03T12:31:06.922Z,32.20
2018-07-03T12:33:35.224Z,31.80
2018-07-03T12:36:03.668Z,31.90
2018-07-03T12:38:32.549Z,32.80
2018-07-03T12:41:00.863Z,33.30
2018-07-03T12:43:29.193Z,33.40
2018-07-03T12:45:57.505Z,33.40
2018-07-03T12:48:25.860Z,33.40
2018-07-03T12:50:54.797Z,34.10
2018-07-03T12:53:23.133Z,34.40
2018-07-03T12:55:51.516Z,33.60
2018-07-03T12:58:19.872Z,33.60
2018-07-03T13:00:48.911Z,33.90
2018-07-03T13:03:17.223Z,34.10
2018-07-03T13:05:45.564Z,34.20
2018-07-03T13:08:13.924Z,34.60
2018-07-03T13:10:42.184Z,34.60
2018-07-03T13:13:10.656Z,34.70
2018-07-03T13:15:39.048Z,35.00
2018-07-03T13:18:12.498Z,35.30
2018-07-03T13:20:41.024Z,35.20
2018-07-03T13:23:09.381Z,35.60
2018-07-03T13:25:37.872Z,35.60
2018-07-03T13:28:06.227Z,35.40
2018-07-03T13:30:34.556Z,34.90
2018-07-03T13:33:02.860Z,35.20
2018-07-03T13:35:31.174Z,35.90
2018-07-03T13:37:59.561Z,36.00
2018-07-03T13:40:27.889Z,35.50
2018-07-03T13:42:56.696Z,35.30
2018-07-03T13:45:25.054Z,35.20
2018-07-03T13:47:53.395Z,35.20
2018-07-03T13:50:21.704Z,35.50
2018-07-03T13:52:50.006Z,35.30
2018-07-03T13:55:18.328Z,36.10
2018-07-03T13:57:46.627Z,36.10
2018-07-03T14:00:14.956Z,35.60
2018-07-03T14:02:43.284Z,36.10
2018-07-03T14:05:11.631Z,35.80
2018-07-03T14:07:40.536Z,35.80
2018-07-03T14:10:08.852Z,35.70
2018-07-03T14:12:37.204Z,36.10
2018-07-03T14:15:06.201Z,36.30
2018-07-03T14:17:34.535Z,36.00
2018-07-03T14:20:02.860Z,36.70
2018-07-03T14:22:31.172Z,36.30
2018-07-03T14:24:59.483Z,35.80
2018-07-03T14:27:27.807Z,36.20
2018-07-03T14:29:56.195Z,36.70
2018-07-03T14:32:24.540Z,36.80
2018-07-03T14:34:52.876Z,37.20
2018-07-03T14:37:21.197Z,37.60
2018-07-03T14:39:49.528Z,37.50
2018-07-03T14:42:17.834Z,37.20
2018-07-03T14:44:46.227Z,37.40
2018-07-03T14:47:14.559Z,37.30
2018-07-03T14:49:42.880Z,37.60
2018-07-03T14:52:12.412Z,37.90
2018-07-03T14:54:40.820Z,37.60
2018-07-03T14:57:09.196Z,38.40
2018-07-03T14:59:37.528Z,38.10
2018-07-03T15:02:06.068Z,37.10
2018-07-03T15:04:34.531Z,37.70
2018-07-03T15:07:02.838Z,37.20
2018-07-03T15:09:31.159Z,38.20
2018-07-03T15:11:59.495Z,37.70
2018-07-03T15:14:27.800Z,37.60
2018-07-03T15:16:56.160Z,37.30
2018-07-03T15:19:29.808Z,37.80
2018-07-03T15:21:58.128Z,37.70
2018-07-03T15:24:26.420Z,37.50
2018-07-03T15:26:55.260Z,37.60
2018-07-03T15:29:23.589Z,38.20
2018-07-03T15:31:52.042Z,38.50
2018-07-03T15:34:20.241Z,38.70
2018-07-03T15:36:48.567Z,38.50
2018-07-03T15:39:16.888Z,37.00
2018-07-03T15:41:45.200Z,36.50
2018-07-03T15:44:24.764Z,36.30
2018-07-03T15:46:53.057Z,36.30
2018-07-03T15:49:21.398Z,36.40
2018-07-03T15:51:49.697Z,36.70
2018-07-03T15:54:18.067Z,36.70
2018-07-03T15:56:46.411Z,36.90
2018-07-03T15:59:14.768Z,37.10
2018-07-03T16:01:44.084Z,37.80
2018-07-03T16:05:26.452Z,37.50
2018-07-03T16:09:01.311Z,37.50
2018-07-03T16:11:29.620Z,37.80
2018-07-03T16:13:57.964Z,37.80
2018-07-03T16:16:26.872Z,37.80
2018-07-03T16:18:59.460Z,37.70
2018-07-03T16:21:27.780Z,38.10
2018-07-03T16:23:56.788Z,38.40
2018-07-03T16:26:25.135Z,39.00
2018-07-03T16:28:53.501Z,37.90
2018-07-03T16:31:22.020Z,37.60
2018-07-03T16:33:50.340Z,37.90
2018-07-03T16:36:18.736Z,37.50
2018-07-03T16:38:47.151Z,37.10
2018-07-03T16:41:16.295Z,36.90
2018-07-03T16:43:44.656Z,37.10
2018-07-03T16:46:12.956Z,36.80
2018-07-03T16:48:41.296Z,36.80
2018-07-03T16:51:10.644Z,36.60
2018-07-03T16:53:39.184Z,36.20
2018-07-03T16:56:07.859Z,35.70
2018-07-03T16:58:36.233Z,36.00
2018-07-03T17:01:04.648Z,36.00
2018-07-03T17:03:32.980Z,36.00
2018-07-03T17:06:01.316Z,36.20
2018-07-03T17:08:29.640Z,35.80
2018-07-03T17:10:58.152Z,35.50
2018-07-03T17:13:26.483Z,35.10
2018-07-03T17:15:54.831Z,35.20
2018-07-03T17:18:23.135Z,35.10
2018-07-03T17:20:51.489Z,35.00
2018-07-03T17:23:19.807Z,34.70
2018-07-03T17:25:48.160Z,34.50
2018-07-03T17:28:16.487Z,34.30
2018-07-03T17:30:44.800Z,34.30
2018-07-03T17:33:13.123Z,34.50
2018-07-03T17:35:41.419Z,34.40
2018-07-03T17:38:09.768Z,34.30
2018-07-03T17:40:49.243Z,34.00
2018-07-03T17:43:29.736Z,34.00
2018-07-03T17:46:05.097Z,33.90
2018-07-03T17:48:33.480Z,33.80
2018-07-03T17:51:01.853Z,34.00
2018-07-03T17:53:30.256Z,34.00
2018-07-03T17:55:58.972Z,33.80
2018-07-03T17:58:27.287Z,33.70
2018-07-03T18:00:55.703Z,33.70
2018-07-03T18:03:23.998Z,33.80
2018-07-03T18:08:44.566Z,33.50
2018-07-03T18:11:12.915Z,33.30
2018-07-03T18:13:41.240Z,33.00
2018-07-03T18:16:09.610Z,32.60
2018-07-03T18:18:37.937Z,32.40
2018-07-03T18:21:06.340Z,31.80
2018-07-03T18:23:34.671Z,31.50
2018-07-03T18:26:03.030Z,31.50
2018-07-03T18:28:31.336Z,31.30
2018-07-03T18:30:59.653Z,31.10
2018-07-03T18:33:27.964Z,30.80
2018-07-03T18:35:56.265Z,30.90
2018-07-03T18:38:24.595Z,30.80
2018-07-03T18:40:52.932Z,30.90
2018-07-03T18:43:21.303Z,30.80
2018-07-03T18:45:49.709Z,30.60
2018-07-03T18:48:18.032Z,30.40
2018-07-03T18:50:46.449Z,30.10
2018-07-03T18:53:14.756Z,29.90
2018-07-03T18:55:47.126Z,29.80
2018-07-03T18:58:22.970Z,29.70
2018-07-03T19:00:54.289Z,29.50
2018-07-03T19:03:25.073Z,28.90
2018-07-03T19:06:02.889Z,28.50
2018-07-03T19:08:38.056Z,28.00
2018-07-03T19:11:11.772Z,27.70
2018-07-03T19:16:15.783Z,27.80
2018-07-03T19:18:50.686Z,27.70
2018-07-03T19:21:29.481Z,27.70
2018-07-03T19:24:02.126Z,27.70
2018-07-03T19:26:38.790Z,27.50
2018-07-03T19:29:13.981Z,27.40
2018-07-03T19:31:48.998Z,27.30
2018-07-03T19:34:19.653Z,27.10
2018-07-03T19:36:53.422Z,26.70
2018-07-03T19:39:28.287Z,26.20
2018-07-03T19:42:02.078Z,26.20
2018-07-03T19:44:34.270Z,26.30
2018-07-03T19:47:19.734Z,26.40
2018-07-03T19:49:52.802Z,26.40
2018-07-03T19:52:28.288Z,26.30
2018-07-03T19:55:02.068Z,26.20
2018-07-03T20:00:18.416Z,25.90
2018-07-03T20:02:58.841Z,25.90
2018-07-03T20:05:33.717Z,25.60
2018-07-03T20:08:05.630Z,25.60
2018-07-03T20:10:40.227Z,25.60
2018-07-03T20:13:13.931Z,25.40
2018-07-03T20:15:49.858Z,25.30
2018-07-03T20:18:25.101Z,24.90
2018-07-03T20:20:55.093Z,24.70
2018-07-03T20:23:33.837Z,24.40
2018-07-03T20:26:07.119Z,24.00
2018-07-03T20:28:42.653Z,24.10
2018-07-03T20:31:14.821Z,24.30
2018-07-03T20:33:52.834Z,24.00
2018-07-03T20:36:24.865Z,23.80
2018-07-03T20:38:55.957Z,23.70
2018-07-03T20:41:36.974Z,23.70
2018-07-03T20:44:05.727Z,23.40
2018-07-03T20:46:34.244Z,23.10
2018-07-03T20:49:02.746Z,23.10
2018-07-03T20:51:30.984Z,23.10
2018-07-03T20:54:00.318Z,23.10
2018-07-03T20:56:28.619Z,23.00
2018-07-03T20:58:57.677Z,23.10
2018-07-03T21:01:25.981Z,23.10
2018-07-03T21:03:54.369Z,23.10
2018-07-03T21:06:22.840Z,22.90
2018-07-03T21:08:51.120Z,22.70
2018-07-03T21:11:19.493Z,22.60
2018-07-03T21:13:47.815Z,22.40
2018-07-03T21:16:16.274Z,22.20
2018-07-03T21:18:44.571Z,22.40
2018-07-03T21:21:12.896Z,22.50
2018-07-03T21:23:41.684Z,22.50
2018-07-03T21:26:10.256Z,22.40
2018-07-03T21:28:38.564Z,22.30
2018-07-03T21:31:06.880Z,22.20
2018-07-03T21:33:35.185Z,22.00
2018-07-03T21:36:03.880Z,21.70
2018-07-03T21:38:32.250Z,21.50
2018-07-03T21:41:00.508Z,21.40
2018-07-03T21:43:28.832Z,21.30
2018-07-03T21:45:57.157Z,21.30
2018-07-03T21:48:26.421Z,21.30
2018-07-03T21:50:54.733Z,21.30
2018-07-03T21:53:23.072Z,21.50
2018-07-03T21:55:51.432Z,21.80
2018-07-03T21:58:33.086Z,22.20
2018-07-03T22:01:01.411Z,22.30
2018-07-03T22:03:29.784Z,22.50
2018-07-03T22:05:58.125Z,22.50
2018-07-03T22:08:26.444Z,22.50
2018-07-03T22:10:54.736Z,22.50
2018-07-03T22:13:23.093Z,22.50
2018-07-03T22:15:51.397Z,22.50
2018-07-03T22:18:19.716Z,22.10
2018-07-03T22:20:48.029Z,22.10
2018-07-03T22:23:16.320Z,22.20
2018-07-03T22:25:44.668Z,21.70
2018-07-03T22:28:12.979Z,21.40
2018-07-03T22:30:41.308Z,21.40
2018-07-03T22:33:09.607Z,21.40
2018-07-03T22:35:37.922Z,21.20
2018-07-03T22:38:06.236Z,21.20
2018-07-03T22:40:34.568Z,21.40
2018-07-03T22:43:02.936Z,21.40
2018-07-03T22:45:31.364Z,21.70
2018-07-03T22:47:59.784Z,21.70
2018-07-03T22:50:28.104Z,21.60
2018-07-03T22:52:56.483Z,21.60
2018-07-03T22:55:24.729Z,21.50
2018-07-03T22:57:53.034Z,21.50
2018-07-03T23:00:21.344Z,21.60
2018-07-03T23:02:49.668Z,21.70
2018-07-03T23:05:17.973Z,21.60
2018-07-03T23:07:46.291Z,21.40
2018-07-03T23:10:14.601Z,21.50
2018-07-03T23:12:43.524Z,21.50
2018-07-03T23:15:11.835Z,21.10
2018-07-03T23:17:40.164Z,20.60
2018-07-03T23:20:08.512Z,20.30
2018-07-03T23:22:36.827Z,20.10
2018-07-03T23:25:05.612Z,20.00
2018-07-03T23:27:33.987Z,20.30
2018-07-03T23:30:02.318Z,20.60
2018-07-03T23:32:30.645Z,20.90
2018-07-03T23:34:59.542Z,21.20
2018-07-03T23:37:28.509Z,21.30
2018-07-03T23:39:56.811Z,21.40
2018-07-03T23:42:25.117Z,21.40
2018-07-03T23:44:53.432Z,21.40
2018-07-03T23:47:33.048Z,21.40
2018-07-03T23:50:12.960Z,21.30
2018-07-03T23:52:52.389Z,21.30
2018-07-03T23:55:32.619Z,21.20
2018-07-03T23:58:12.190Z,20.90
